sensor_id;sensor_type;location;lat;lon;timestamp;temperature;humidity
66343;DHT22;53144;51.524;5.080;2023-03-01T00:01:50;0.28;72.00
66343;DHT22;53144;51.524;5.080;2023-03-01T00:04:15;0.29;71.80
66343;DHT22;53144;51.524;5.080;2023-03-01T00:06:42;0.26;72.16
66343;DHT22;53144;51.524;5.080;2023-03-01T00:09:11;0.23;72.13
66343;DHT22;53144;51.524;5.080;2023-03-01T00:11:37;0.19;72.49
66343;DHT22;53144;51.524;5.080;2023-03-01T00:14:03;0.20;72.70
66343;DHT22;53144;51.524;5.080;2023-03-01T00:16:40;0.23;72.30
66343;DHT22;53144;51.524;5.080;2023-03-01T00:19:09;0.12;72.43
66343;DHT22;53144;51.524;5.080;2023-03-01T00:21:36;0.11;72.76
66343;DHT22;53144;51.524;5.080;2023-03-01T00:24:02;0.11;72.58
66343;DHT22;53144;51.524;5.080;2023-03-01T00:26:27;0.11;72.42
66343;DHT22;53144;51.524;5.080;2023-03-01T00:28:54;0.05;72.79
66343;DHT22;53144;51.524;5.080;2023-03-01T00:31:22;0.05;72.61
66343;DHT22;53144;51.524;5.080;2023-03-01T00:33:52;0.02;72.75
66343;DHT22;53144;51.524;5.080;2023-03-01T00:36:19;-0.03;73.34
66343;DHT22;53144;51.524;5.080;2023-03-01T00:38:45;-0.15;73.32
66343;DHT22;53144;51.524;5.080;2023-03-01T00:41:15;-0.13;73.23
66343;DHT22;53144;51.524;5.080;2023-03-01T00:43:42;-0.19;73.61
66343;DHT22;53144;51.524;5.080;2023-03-01T00:46:11;-0.28;73.88
66343;DHT22;53144;51.524;5.080;2023-03-01T00:48:36;-0.30;74.17
66343;DHT22;53144;51.524;5.080;2023-03-01T00:51:09;-0.30;74.38
66343;DHT22;53144;51.524;5.080;2023-03-01T00:53:36;-0.29;74.27
66343;DHT22;53144;51.524;5.080;2023-03-01T00:56:02;-0.23;74.06
66343;DHT22;53144;51.524;5.080;2023-03-01T00:58:28;-0.13;73.89
66343;DHT22;53144;51.524;5.080;2023-03-01T01:00:53;-0.19;74.04
66343;DHT22;53144;51.524;5.080;2023-03-01T01:03:19;-0.13;73.60
66343;DHT22;53144;51.524;5.080;2023-03-01T01:05:45;-0.13;73.71
66343;DHT22;53144;51.524;5.080;2023-03-01T01:08:10;-0.08;73.67
66343;DHT22;53144;51.524;5.080;2023-03-01T01:10:36;-0.05;73.48
66343;DHT22;53144;51.524;5.080;2023-03-01T01:13:02;-0.20;74.31
66343;DHT22;53144;51.524;5.080;2023-03-01T01:15:27;-0.26;74.29
66343;DHT22;53144;51.524;5.080;2023-03-01T01:17:53;-0.30;74.20
66343;DHT22;53144;51.524;5.080;2023-03-01T01:20:18;-0.28;74.41
66343;DHT22;53144;51.524;5.080;2023-03-01T01:22:44;-0.34;74.54
66343;DHT22;53144;51.524;5.080;2023-03-01T01:25:09;-0.36;74.59
66343;DHT22;53144;51.524;5.080;2023-03-01T01:27:35;-0.39;74.88
66343;DHT22;53144;51.524;5.080;2023-03-01T01:30:01;-0.26;74.36
66343;DHT22;53144;51.524;5.080;2023-03-01T01:32:26;-0.23;74.41
66343;DHT22;53144;51.524;5.080;2023-03-01T01:34:51;-0.26;74.51
66343;DHT22;53144;51.524;5.080;2023-03-01T01:37:17;-0.37;74.76
66343;DHT22;53144;51.524;5.080;2023-03-01T01:39:42;-0.36;74.82
66343;DHT22;53144;51.524;5.080;2023-03-01T01:42:17;-0.40;74.92
66343;DHT22;53144;51.524;5.080;2023-03-01T01:44:46;-0.44;75.72
66343;DHT22;53144;51.524;5.080;2023-03-01T01:47:18;-0.36;75.08
66343;DHT22;53144;51.524;5.080;2023-03-01T01:49:48;-0.39;75.24
66343;DHT22;53144;51.524;5.080;2023-03-01T01:52:35;-0.46;75.59
66343;DHT22;53144;51.524;5.080;2023-03-01T01:55:14;-0.47;75.41
66343;DHT22;53144;51.524;5.080;2023-03-01T01:57:44;-0.54;75.82
66343;DHT22;53144;51.524;5.080;2023-03-01T02:02:38;-0.53;76.27
66343;DHT22;53144;51.524;5.080;2023-03-01T02:07:39;-0.57;76.03
66343;DHT22;53144;51.524;5.080;2023-03-01T02:10:05;-0.57;76.23
66343;DHT22;53144;51.524;5.080;2023-03-01T02:12:31;-0.54;75.95
66343;DHT22;53144;51.524;5.080;2023-03-01T02:14:57;-0.59;76.00
66343;DHT22;53144;51.524;5.080;2023-03-01T02:17:23;-0.53;75.91
66343;DHT22;53144;51.524;5.080;2023-03-01T02:22:30;-0.52;75.76
66343;DHT22;53144;51.524;5.080;2023-03-01T02:30:21;-0.43;75.81
66343;DHT22;53144;51.524;5.080;2023-03-01T02:32:47;-0.56;76.11
66343;DHT22;53144;51.524;5.080;2023-03-01T02:35:16;-0.54;76.02
66343;DHT22;53144;51.524;5.080;2023-03-01T02:37:44;-0.63;76.43
66343;DHT22;53144;51.524;5.080;2023-03-01T02:40:17;-0.56;76.27
66343;DHT22;53144;51.524;5.080;2023-03-01T02:42:51;-0.59;76.29
66343;DHT22;53144;51.524;5.080;2023-03-01T02:45:17;-0.61;76.60
66343;DHT22;53144;51.524;5.080;2023-03-01T02:47:42;-0.57;76.29
66343;DHT22;53144;51.524;5.080;2023-03-01T02:50:25;-0.53;76.19
66343;DHT22;53144;51.524;5.080;2023-03-01T02:53:23;-0.68;76.48
66343;DHT22;53144;51.524;5.080;2023-03-01T02:55:47;-0.76;77.01
66343;DHT22;53144;51.524;5.080;2023-03-01T02:58:13;-0.73;76.98
66343;DHT22;53144;51.524;5.080;2023-03-01T03:00:41;-0.67;76.91
66343;DHT22;53144;51.524;5.080;2023-03-01T03:03:15;-0.68;77.20
66343;DHT22;53144;51.524;5.080;2023-03-01T03:05:42;-0.64;77.06
66343;DHT22;53144;51.524;5.080;2023-03-01T03:08:07;-0.67;77.09
66343;DHT22;53144;51.524;5.080;2023-03-01T03:10:38;-0.67;77.05
66343;DHT22;53144;51.524;5.080;2023-03-01T03:13:06;-0.66;77.07
66343;DHT22;53144;51.524;5.080;2023-03-01T03:15:32;-0.67;77.27
66343;DHT22;53144;51.524;5.080;2023-03-01T03:18:02;-0.73;77.52
66343;DHT22;53144;51.524;5.080;2023-03-01T03:20:29;-0.70;77.74
66343;DHT22;53144;51.524;5.080;2023-03-01T03:22:56;-0.67;77.42
66343;DHT22;53144;51.524;5.080;2023-03-01T03:25:22;-0.77;77.75
66343;DHT22;53144;51.524;5.080;2023-03-01T03:27:49;-0.81;77.90
66343;DHT22;53144;51.524;5.080;2023-03-01T03:30:17;-0.88;78.31
66343;DHT22;53144;51.524;5.080;2023-03-01T03:32:44;-0.80;78.20
66343;DHT22;53144;51.524;5.080;2023-03-01T03:38:12;-0.89;78.64
66343;DHT22;53144;51.524;5.080;2023-03-01T03:40:58;-0.85;78.21
66343;DHT22;53144;51.524;5.080;2023-03-01T03:43:27;-0.88;78.68
66343;DHT22;53144;51.524;5.080;2023-03-01T03:45:53;-0.87;78.26
66343;DHT22;53144;51.524;5.080;2023-03-01T03:48:19;-0.88;78.26
66343;DHT22;53144;51.524;5.080;2023-03-01T03:50:50;-0.91;78.39
66343;DHT22;53144;51.524;5.080;2023-03-01T03:53:15;-0.94;78.63
66343;DHT22;53144;51.524;5.080;2023-03-01T03:55:41;-0.92;78.76
66343;DHT22;53144;51.524;5.080;2023-03-01T03:58:08;-1.02;78.89
66343;DHT22;53144;51.524;5.080;2023-03-01T04:00:40;-1.02;79.10
66343;DHT22;53144;51.524;5.080;2023-03-01T04:03:06;-1.05;78.85
66343;DHT22;53144;51.524;5.080;2023-03-01T04:05:32;-1.02;78.84
66343;DHT22;53144;51.524;5.080;2023-03-01T04:07:58;-1.08;79.25
66343;DHT22;53144;51.524;5.080;2023-03-01T04:10:30;-1.15;79.16
66343;DHT22;53144;51.524;5.080;2023-03-01T04:12:56;-1.13;79.35
66343;DHT22;53144;51.524;5.080;2023-03-01T04:15:23;-1.13;79.40
66343;DHT22;53144;51.524;5.080;2023-03-01T04:17:50;-1.22;79.44
66343;DHT22;53144;51.524;5.080;2023-03-01T04:20:19;-1.26;79.77
66343;DHT22;53144;51.524;5.080;2023-03-01T04:22:55;-1.28;79.98
66343;DHT22;53144;51.524;5.080;2023-03-01T04:25:22;-1.20;79.84
66343;DHT22;53144;51.524;5.080;2023-03-01T04:27:48;-1.18;79.81
66343;DHT22;53144;51.524;5.080;2023-03-01T04:30:14;-1.29;80.02
66343;DHT22;53144;51.524;5.080;2023-03-01T04:32:39;-1.31;80.10
66343;DHT22;53144;51.524;5.080;2023-03-01T04:35:05;-1.40;80.61
66343;DHT22;53144;51.524;5.080;2023-03-01T04:37:30;-1.40;80.40
66343;DHT22;53144;51.524;5.080;2023-03-01T04:39:56;-1.32;80.21
66343;DHT22;53144;51.524;5.080;2023-03-01T04:42:21;-1.26;80.05
66343;DHT22;53144;51.524;5.080;2023-03-01T04:44:46;-1.29;80.11
66343;DHT22;53144;51.524;5.080;2023-03-01T04:47:12;-1.31;80.06
66343;DHT22;53144;51.524;5.080;2023-03-01T04:49:38;-1.26;80.16
66343;DHT22;53144;51.524;5.080;2023-03-01T04:52:04;-1.31;80.24
66343;DHT22;53144;51.524;5.080;2023-03-01T04:54:33;-1.25;79.89
66343;DHT22;53144;51.524;5.080;2023-03-01T04:56:59;-1.28;79.82
66343;DHT22;53144;51.524;5.080;2023-03-01T04:59:25;-1.24;79.93
66343;DHT22;53144;51.524;5.080;2023-03-01T05:01:51;-1.32;80.53
66343;DHT22;53144;51.524;5.080;2023-03-01T05:04:17;-1.40;80.51
66343;DHT22;53144;51.524;5.080;2023-03-01T05:06:43;-1.43;80.58
66343;DHT22;53144;51.524;5.080;2023-03-01T05:09:08;-1.40;80.40
66343;DHT22;53144;51.524;5.080;2023-03-01T05:11:34;-1.39;80.22
66343;DHT22;53144;51.524;5.080;2023-03-01T05:14:08;-1.40;80.31
66343;DHT22;53144;51.524;5.080;2023-03-01T05:16:34;-1.42;80.47
66343;DHT22;53144;51.524;5.080;2023-03-01T05:19:01;-1.31;80.42
66343;DHT22;53144;51.524;5.080;2023-03-01T05:21:37;-1.29;80.40
66343;DHT22;53144;51.524;5.080;2023-03-01T05:24:23;-1.42;80.73
66343;DHT22;53144;51.524;5.080;2023-03-01T05:26:48;-1.45;80.74
66343;DHT22;53144;51.524;5.080;2023-03-01T05:29:14;-1.42;80.60
66343;DHT22;53144;51.524;5.080;2023-03-01T05:31:39;-1.43;80.74
66343;DHT22;53144;51.524;5.080;2023-03-01T05:34:05;-1.45;80.74
66343;DHT22;53144;51.524;5.080;2023-03-01T05:36:31;-1.46;80.64
66343;DHT22;53144;51.524;5.080;2023-03-01T05:38:57;-1.43;80.72
66343;DHT22;53144;51.524;5.080;2023-03-01T05:41:22;-1.50;80.67
66343;DHT22;53144;51.524;5.080;2023-03-01T05:43:47;-1.50;80.90
66343;DHT22;53144;51.524;5.080;2023-03-01T05:46:13;-1.52;80.53
66343;DHT22;53144;51.524;5.080;2023-03-01T05:48:40;-1.53;80.80
66343;DHT22;53144;51.524;5.080;2023-03-01T05:51:05;-1.52;80.94
66343;DHT22;53144;51.524;5.080;2023-03-01T05:53:31;-1.56;80.94
66343;DHT22;53144;51.524;5.080;2023-03-01T05:55:56;-1.66;81.04
66343;DHT22;53144;51.524;5.080;2023-03-01T05:58:22;-1.67;81.12
66343;DHT22;53144;51.524;5.080;2023-03-01T06:00:48;-1.70;81.39
66343;DHT22;53144;51.524;5.080;2023-03-01T06:03:17;-1.71;81.61
66343;DHT22;53144;51.524;5.080;2023-03-01T06:05:44;-1.77;81.44
66343;DHT22;53144;51.524;5.080;2023-03-01T06:08:10;-1.76;82.07
66343;DHT22;53144;51.524;5.080;2023-03-01T06:10:36;-1.71;81.80
66343;DHT22;53144;51.524;5.080;2023-03-01T06:13:01;-1.78;81.73
66343;DHT22;53144;51.524;5.080;2023-03-01T06:15:27;-1.84;81.92
66343;DHT22;53144;51.524;5.080;2023-03-01T06:17:54;-1.84;82.10
66343;DHT22;53144;51.524;5.080;2023-03-01T06:20:23;-1.86;82.06
66343;DHT22;53144;51.524;5.080;2023-03-01T06:22:50;-1.88;82.40
66343;DHT22;53144;51.524;5.080;2023-03-01T06:25:21;-1.88;82.62
66343;DHT22;53144;51.524;5.080;2023-03-01T06:27:47;-1.91;82.68
66343;DHT22;53144;51.524;5.080;2023-03-01T06:30:16;-1.83;82.45
66343;DHT22;53144;51.524;5.080;2023-03-01T06:32:42;-1.80;82.21
66343;DHT22;53144;51.524;5.080;2023-03-01T06:35:09;-1.71;81.74
66343;DHT22;53144;51.524;5.080;2023-03-01T06:37:35;-1.70;81.61
66343;DHT22;53144;51.524;5.080;2023-03-01T06:40:02;-1.71;81.71
66343;DHT22;53144;51.524;5.080;2023-03-01T06:42:34;-1.71;81.94
66343;DHT22;53144;51.524;5.080;2023-03-01T06:44:59;-1.71;81.84
66343;DHT22;53144;51.524;5.080;2023-03-01T06:47:25;-1.71;82.08
66343;DHT22;53144;51.524;5.080;2023-03-01T06:49:50;-1.57;81.68
66343;DHT22;53144;51.524;5.080;2023-03-01T06:52:19;-1.60;81.85
66343;DHT22;53144;51.524;5.080;2023-03-01T06:54:44;-1.60;81.90
66343;DHT22;53144;51.524;5.080;2023-03-01T06:57:09;-1.66;81.75
66343;DHT22;53144;51.524;5.080;2023-03-01T06:59:35;-1.60;82.25
66343;DHT22;53144;51.524;5.080;2023-03-01T07:02:00;-1.59;81.95
66343;DHT22;53144;51.524;5.080;2023-03-01T07:04:26;-1.63;81.67
66343;DHT22;53144;51.524;5.080;2023-03-01T07:06:53;-1.59;82.10
66343;DHT22;53144;51.524;5.080;2023-03-01T07:09:21;-1.48;81.89
66343;DHT22;53144;51.524;5.080;2023-03-01T07:11:47;-1.40;81.65
66343;DHT22;53144;51.524;5.080;2023-03-01T07:14:15;-1.38;82.04
66343;DHT22;53144;51.524;5.080;2023-03-01T07:16:45;-1.31;81.56
66343;DHT22;53144;51.524;5.080;2023-03-01T07:19:10;-1.22;81.55
66343;DHT22;53144;51.524;5.080;2023-03-01T07:21:36;-1.20;81.01
66343;DHT22;53144;51.524;5.080;2023-03-01T07:24:07;-1.19;81.12
66343;DHT22;53144;51.524;5.080;2023-03-01T07:26:32;-1.13;80.75
66343;DHT22;53144;51.524;5.080;2023-03-01T07:29:05;-0.97;80.52
66343;DHT22;53144;51.524;5.080;2023-03-01T07:31:31;-0.80;79.86
66343;DHT22;53144;51.524;5.080;2023-03-01T07:33:57;-0.78;80.15
66343;DHT22;53144;51.524;5.080;2023-03-01T07:36:22;-0.64;79.53
66343;DHT22;53144;51.524;5.080;2023-03-01T07:38:48;-0.54;79.11
66343;DHT22;53144;51.524;5.080;2023-03-01T07:41:14;-0.39;78.66
66343;DHT22;53144;51.524;5.080;2023-03-01T07:43:39;-0.36;78.22
66343;DHT22;53144;51.524;5.080;2023-03-01T07:46:05;-0.22;77.84
66343;DHT22;53144;51.524;5.080;2023-03-01T07:48:32;-0.12;77.03
66343;DHT22;53144;51.524;5.080;2023-03-01T07:50:58;-0.08;76.87
66343;DHT22;53144;51.524;5.080;2023-03-01T07:53:25;0.03;77.21
66343;DHT22;53144;51.524;5.080;2023-03-01T07:55:50;0.06;77.45
66343;DHT22;53144;51.524;5.080;2023-03-01T07:58:24;0.08;77.11
66343;DHT22;53144;51.524;5.080;2023-03-01T08:00:50;0.09;76.74
66343;DHT22;53144;51.524;5.080;2023-03-01T08:03:18;0.18;76.78
66343;DHT22;53144;51.524;5.080;2023-03-01T08:05:43;0.25;76.49
66343;DHT22;53144;51.524;5.080;2023-03-01T08:08:09;0.33;76.35
66343;DHT22;53144;51.524;5.080;2023-03-01T08:10:34;0.45;76.01
66343;DHT22;53144;51.524;5.080;2023-03-01T08:13:00;0.46;75.68
66343;DHT22;53144;51.524;5.080;2023-03-01T08:15:26;0.54;75.49
66343;DHT22;53144;51.524;5.080;2023-03-01T08:17:51;0.66;74.54
66343;DHT22;53144;51.524;5.080;2023-03-01T08:20:17;0.80;74.01
66343;DHT22;53144;51.524;5.080;2023-03-01T08:22:42;0.84;74.48
66343;DHT22;53144;51.524;5.080;2023-03-01T08:25:08;0.87;74.15
66343;DHT22;53144;51.524;5.080;2023-03-01T08:27:33;0.98;74.19
66343;DHT22;53144;51.524;5.080;2023-03-01T08:29:59;0.98;74.84
66343;DHT22;53144;51.524;5.080;2023-03-01T08:32:24;1.12;73.96
66343;DHT22;53144;51.524;5.080;2023-03-01T08:34:49;1.21;73.57
66343;DHT22;53144;51.524;5.080;2023-03-01T08:37:15;1.32;72.68
66343;DHT22;53144;51.524;5.080;2023-03-01T08:39:40;1.36;72.98
66343;DHT22;53144;51.524;5.080;2023-03-01T08:42:06;1.45;72.66
66343;DHT22;53144;51.524;5.080;2023-03-01T08:44:31;1.55;72.73
66343;DHT22;53144;51.524;5.080;2023-03-01T08:46:57;1.67;72.31
66343;DHT22;53144;51.524;5.080;2023-03-01T08:49:23;1.81;71.60
66343;DHT22;53144;51.524;5.080;2023-03-01T08:51:48;2.00;70.20
66343;DHT22;53144;51.524;5.080;2023-03-01T08:54:16;2.10;70.15
66343;DHT22;53144;51.524;5.080;2023-03-01T08:56:43;2.17;69.96
66343;DHT22;53144;51.524;5.080;2023-03-01T08:59:10;2.21;69.45
66343;DHT22;53144;51.524;5.080;2023-03-01T09:01:36;2.32;69.12
66343;DHT22;53144;51.524;5.080;2023-03-01T09:04:02;2.38;69.87
66343;DHT22;53144;51.524;5.080;2023-03-01T09:06:30;2.48;68.59
66343;DHT22;53144;51.524;5.080;2023-03-01T09:08:56;2.56;67.72
66343;DHT22;53144;51.524;5.080;2023-03-01T09:11:28;2.65;67.55
66343;DHT22;53144;51.524;5.080;2023-03-01T09:13:54;2.71;67.95
66343;DHT22;53144;51.524;5.080;2023-03-01T09:16:21;2.83;67.76
66343;DHT22;53144;51.524;5.080;2023-03-01T09:18:51;2.93;66.90
66343;DHT22;53144;51.524;5.080;2023-03-01T09:21:19;2.90;65.38
66343;DHT22;53144;51.524;5.080;2023-03-01T09:23:47;2.96;66.63
66343;DHT22;53144;51.524;5.080;2023-03-01T09:26:19;3.00;66.19
66343;DHT22;53144;51.524;5.080;2023-03-01T09:28:47;3.07;64.67
66343;DHT22;53144;51.524;5.080;2023-03-01T09:31:13;3.17;66.42
66343;DHT22;53144;51.524;5.080;2023-03-01T09:33:40;3.35;66.21
66343;DHT22;53144;51.524;5.080;2023-03-01T09:36:08;3.45;64.39
66343;DHT22;53144;51.524;5.080;2023-03-01T09:38:35;3.61;63.88
66343;DHT22;53144;51.524;5.080;2023-03-01T09:41:00;3.65;64.08
66343;DHT22;53144;51.524;5.080;2023-03-01T09:43:35;3.75;62.74
66343;DHT22;53144;51.524;5.080;2023-03-01T09:46:10;3.90;63.05
66343;DHT22;53144;51.524;5.080;2023-03-01T09:48:43;4.26;62.60
66343;DHT22;53144;51.524;5.080;2023-03-01T09:51:17;4.45;61.14
66343;DHT22;53144;51.524;5.080;2023-03-01T09:53:44;4.58;59.56
66343;DHT22;53144;51.524;5.080;2023-03-01T09:56:14;4.82;60.07
66343;DHT22;53144;51.524;5.080;2023-03-01T10:01:32;4.99;58.90
66343;DHT22;53144;51.524;5.080;2023-03-01T10:09:40;5.33;57.48
66343;DHT22;53144;51.524;5.080;2023-03-01T10:12:16;5.13;57.01
66343;DHT22;53144;51.524;5.080;2023-03-01T10:14:54;5.44;56.69
66343;DHT22;53144;51.524;5.080;2023-03-01T10:17:46;5.63;56.82
66343;DHT22;53144;51.524;5.080;2023-03-01T10:20:22;5.63;56.40
66343;DHT22;53144;51.524;5.080;2023-03-01T10:22:48;5.87;57.22
66343;DHT22;53144;51.524;5.080;2023-03-01T10:25:44;5.85;55.79
66343;DHT22;53144;51.524;5.080;2023-03-01T10:30:53;6.36;53.22
66343;DHT22;53144;51.524;5.080;2023-03-01T10:33:32;6.64;53.23
66343;DHT22;53144;51.524;5.080;2023-03-01T10:35:58;6.64;52.12
66343;DHT22;53144;51.524;5.080;2023-03-01T10:38:24;7.21;52.28
66343;DHT22;53144;51.524;5.080;2023-03-01T10:40:57;7.29;51.09
66343;DHT22;53144;51.524;5.080;2023-03-01T10:43:25;8.58;49.13
66343;DHT22;53144;51.524;5.080;2023-03-01T10:45:52;8.72;48.29
66343;DHT22;53144;51.524;5.080;2023-03-01T10:48:20;8.94;46.94
66343;DHT22;53144;51.524;5.080;2023-03-01T10:51:05;9.83;47.10
66343;DHT22;53144;51.524;5.080;2023-03-01T10:53:41;10.23;44.39
66343;DHT22;53144;51.524;5.080;2023-03-01T10:56:08;9.77;45.14
66343;DHT22;53144;51.524;5.080;2023-03-01T10:58:35;10.13;44.35
66343;DHT22;53144;51.524;5.080;2023-03-01T11:03:42;9.83;42.91
66343;DHT22;53144;51.524;5.080;2023-03-01T11:08:36;9.99;43.87
66343;DHT22;53144;51.524;5.080;2023-03-01T11:11:24;9.27;43.66
66343;DHT22;53144;51.524;5.080;2023-03-01T11:14:04;9.77;43.46
66343;DHT22;53144;51.524;5.080;2023-03-01T11:16:42;10.03;43.38
66343;DHT22;53144;51.524;5.080;2023-03-01T11:21:35;9.63;43.97
66343;DHT22;53144;51.524;5.080;2023-03-01T11:24:03;9.90;42.44
66343;DHT22;53144;51.524;5.080;2023-03-01T11:26:30;9.41;43.47
66343;DHT22;53144;51.524;5.080;2023-03-01T11:29:00;10.61;42.13
66343;DHT22;53144;51.524;5.080;2023-03-01T11:31:29;10.21;42.23
66343;DHT22;53144;51.524;5.080;2023-03-01T11:34:01;10.13;42.67
66343;DHT22;53144;51.524;5.080;2023-03-01T11:39:27;10.44;42.15
66343;DHT22;53144;51.524;5.080;2023-03-01T11:44:59;10.32;41.95
66343;DHT22;53144;51.524;5.080;2023-03-01T11:50:30;11.15;41.30
66343;DHT22;53144;51.524;5.080;2023-03-01T11:56:35;10.91;42.21
66343;DHT22;53144;51.524;5.080;2023-03-01T12:05:36;11.57;39.94
66343;DHT22;53144;51.524;5.080;2023-03-01T12:13:36;11.16;40.28
66343;DHT22;53144;51.524;5.080;2023-03-01T12:19:26;11.33;39.78
66343;DHT22;53144;51.524;5.080;2023-03-01T12:32:50;9.00;45.06
66343;DHT22;53144;51.524;5.080;2023-03-01T12:43:22;7.36;50.23
66343;DHT22;53144;51.524;5.080;2023-03-01T12:46:34;7.08;50.76
66343;DHT22;53144;51.524;5.080;2023-03-01T12:48:40;6.88;50.57
66343;DHT22;53144;51.524;5.080;2023-03-01T12:51:09;7.42;50.98
66343;DHT22;53144;51.524;5.080;2023-03-01T12:53:41;8.04;47.85
66343;DHT22;53144;51.524;5.080;2023-03-01T12:56:11;8.44;46.84
66343;DHT22;53144;51.524;5.080;2023-03-01T12:58:51;8.93;45.53
66343;DHT22;53144;51.524;5.080;2023-03-01T13:04:24;9.61;43.89
66343;DHT22;53144;51.524;5.080;2023-03-01T13:12:50;10.94;42.97
66343;DHT22;53144;51.524;5.080;2023-03-01T13:17:50;11.30;41.99
66343;DHT22;53144;51.524;5.080;2023-03-01T13:20:21;10.65;40.93
66343;DHT22;53144;51.524;5.080;2023-03-01T13:22:48;10.48;41.94
66343;DHT22;53144;51.524;5.080;2023-03-01T13:25:25;10.89;41.70
66343;DHT22;53144;51.524;5.080;2023-03-01T13:30:55;9.89;41.81
66343;DHT22;53144;51.524;5.080;2023-03-01T13:35:53;10.58;41.45
66343;DHT22;53144;51.524;5.080;2023-03-01T13:41:03;10.68;40.37
66343;DHT22;53144;51.524;5.080;2023-03-01T13:43:34;10.69;41.20
66343;DHT22;53144;51.524;5.080;2023-03-01T13:46:07;10.46;42.37
66343;DHT22;53144;51.524;5.080;2023-03-01T13:48:34;10.07;42.80
66343;DHT22;53144;51.524;5.080;2023-03-01T13:51:11;11.14;41.63
66343;DHT22;53144;51.524;5.080;2023-03-01T13:53:41;11.26;41.13
66343;DHT22;53144;51.524;5.080;2023-03-01T13:56:15;10.69;41.37
66343;DHT22;53144;51.524;5.080;2023-03-01T13:58:53;10.29;42.02
66343;DHT22;53144;51.524;5.080;2023-03-01T14:01:28;9.72;43.34
66343;DHT22;53144;51.524;5.080;2023-03-01T14:03:54;10.44;42.28
66343;DHT22;53144;51.524;5.080;2023-03-01T14:06:26;10.27;41.41
66343;DHT22;53144;51.524;5.080;2023-03-01T14:09:01;9.99;42.51
66343;DHT22;53144;51.524;5.080;2023-03-01T14:19:31;9.42;44.66
66343;DHT22;53144;51.524;5.080;2023-03-01T14:22:06;9.67;44.47
66343;DHT22;53144;51.524;5.080;2023-03-01T14:24:43;9.44;44.83
66343;DHT22;53144;51.524;5.080;2023-03-01T14:27:13;9.37;44.29
66343;DHT22;53144;51.524;5.080;2023-03-01T14:29:40;9.57;44.91
66343;DHT22;53144;51.524;5.080;2023-03-01T14:32:18;8.81;46.02
66343;DHT22;53144;51.524;5.080;2023-03-01T14:34:49;8.76;47.25
66343;DHT22;53144;51.524;5.080;2023-03-01T14:37:25;8.58;45.70
66343;DHT22;53144;51.524;5.080;2023-03-01T14:39:51;8.32;46.34
66343;DHT22;53144;51.524;5.080;2023-03-01T14:42:18;8.59;47.05
66343;DHT22;53144;51.524;5.080;2023-03-01T14:44:51;8.76;46.64
66343;DHT22;53144;51.524;5.080;2023-03-01T14:49:58;8.32;47.98
66343;DHT22;53144;51.524;5.080;2023-03-01T14:52:35;8.01;49.22
66343;DHT22;53144;51.524;5.080;2023-03-01T14:55:04;8.45;48.24
66343;DHT22;53144;51.524;5.080;2023-03-01T14:57:30;8.44;48.79
66343;DHT22;53144;51.524;5.080;2023-03-01T15:00:01;8.24;47.99
66343;DHT22;53144;51.524;5.080;2023-03-01T15:02:31;7.95;48.89
66343;DHT22;53144;51.524;5.080;2023-03-01T15:05:01;7.98;48.40
66343;DHT22;53144;51.524;5.080;2023-03-01T15:07:34;7.97;49.91
66343;DHT22;53144;51.524;5.080;2023-03-01T15:10:02;7.67;48.71
66343;DHT22;53144;51.524;5.080;2023-03-01T15:14:55;7.39;49.25
66343;DHT22;53144;51.524;5.080;2023-03-01T15:17:31;7.36;48.53
66343;DHT22;53144;51.524;5.080;2023-03-01T15:19:57;7.50;48.62
66343;DHT22;53144;51.524;5.080;2023-03-01T15:22:25;7.43;49.27
66343;DHT22;53144;51.524;5.080;2023-03-01T15:24:52;7.48;50.12
66343;DHT22;53144;51.524;5.080;2023-03-01T15:27:21;7.31;50.18
66343;DHT22;53144;51.524;5.080;2023-03-01T15:29:59;7.39;49.58
66343;DHT22;53144;51.524;5.080;2023-03-01T15:32:34;7.22;49.27
66343;DHT22;53144;51.524;5.080;2023-03-01T15:35:01;7.05;50.65
66343;DHT22;53144;51.524;5.080;2023-03-01T15:37:49;7.05;49.98
66343;DHT22;53144;51.524;5.080;2023-03-01T15:40:26;6.88;50.49
66343;DHT22;53144;51.524;5.080;2023-03-01T15:42:59;6.92;50.19
66343;DHT22;53144;51.524;5.080;2023-03-01T15:45:26;6.84;49.48
66343;DHT22;53144;51.524;5.080;2023-03-01T15:48:15;6.81;49.62
66343;DHT22;53144;51.524;5.080;2023-03-01T15:50:42;6.76;49.36
66343;DHT22;53144;51.524;5.080;2023-03-01T15:53:13;6.74;49.31
66343;DHT22;53144;51.524;5.080;2023-03-01T15:55:40;6.64;50.60
66343;DHT22;53144;51.524;5.080;2023-03-01T15:58:10;6.67;50.83
66343;DHT22;53144;51.524;5.080;2023-03-01T16:00:37;6.67;51.57
66343;DHT22;53144;51.524;5.080;2023-03-01T16:03:04;6.60;50.76
66343;DHT22;53144;51.524;5.080;2023-03-01T16:05:33;6.52;50.86
66343;DHT22;53144;51.524;5.080;2023-03-01T16:08:02;6.54;51.06
66343;DHT22;53144;51.524;5.080;2023-03-01T16:10:28;6.60;50.70
66343;DHT22;53144;51.524;5.080;2023-03-01T16:12:54;6.57;50.52
66343;DHT22;53144;51.524;5.080;2023-03-01T16:15:21;6.44;50.46
66343;DHT22;53144;51.524;5.080;2023-03-01T16:17:47;6.46;50.70
66343;DHT22;53144;51.524;5.080;2023-03-01T16:20:13;6.47;51.82
66343;DHT22;53144;51.524;5.080;2023-03-01T16:22:43;6.37;50.95
66343;DHT22;53144;51.524;5.080;2023-03-01T16:25:11;6.40;51.01
66343;DHT22;53144;51.524;5.080;2023-03-01T16:27:37;6.33;51.17
66343;DHT22;53144;51.524;5.080;2023-03-01T16:30:03;6.28;50.74
66343;DHT22;53144;51.524;5.080;2023-03-01T16:32:29;6.22;51.49
66343;DHT22;53144;51.524;5.080;2023-03-01T16:34:54;6.11;51.94
66343;DHT22;53144;51.524;5.080;2023-03-01T16:37:20;6.16;51.79
66343;DHT22;53144;51.524;5.080;2023-03-01T16:39:47;6.09;52.90
66343;DHT22;53144;51.524;5.080;2023-03-01T16:42:13;6.02;52.13
66343;DHT22;53144;51.524;5.080;2023-03-01T16:44:39;6.05;52.64
66343;DHT22;53144;51.524;5.080;2023-03-01T16:47:05;6.01;52.53
66343;DHT22;53144;51.524;5.080;2023-03-01T16:49:30;5.94;52.74
66343;DHT22;53144;51.524;5.080;2023-03-01T16:51:55;5.87;53.57
66343;DHT22;53144;51.524;5.080;2023-03-01T16:54:21;5.84;54.11
66343;DHT22;53144;51.524;5.080;2023-03-01T16:56:46;5.77;53.90
66343;DHT22;53144;51.524;5.080;2023-03-01T16:59:12;5.61;54.76
66343;DHT22;53144;51.524;5.080;2023-03-01T17:01:37;5.60;54.58
66343;DHT22;53144;51.524;5.080;2023-03-01T17:04:04;5.54;54.12
66343;DHT22;53144;51.524;5.080;2023-03-01T17:06:30;5.61;53.96
66343;DHT22;53144;51.524;5.080;2023-03-01T17:08:57;5.53;55.06
66343;DHT22;53144;51.524;5.080;2023-03-01T17:11:22;5.40;55.16
66343;DHT22;53144;51.524;5.080;2023-03-01T17:13:48;5.39;55.31
66343;DHT22;53144;51.524;5.080;2023-03-01T17:16:15;5.33;55.30
66343;DHT22;53144;51.524;5.080;2023-03-01T17:18:42;5.29;55.56
66343;DHT22;53144;51.524;5.080;2023-03-01T17:21:08;5.16;55.92
66343;DHT22;53144;51.524;5.080;2023-03-01T17:23:34;5.18;56.32
66343;DHT22;53144;51.524;5.080;2023-03-01T17:26:00;5.08;56.44
66343;DHT22;53144;51.524;5.080;2023-03-01T17:28:28;4.99;56.41
66343;DHT22;53144;51.524;5.080;2023-03-01T17:30:54;5.03;56.35
66343;DHT22;53144;51.524;5.080;2023-03-01T17:33:20;5.00;56.26
66343;DHT22;53144;51.524;5.080;2023-03-01T17:35:46;4.89;57.38
66343;DHT22;53144;51.524;5.080;2023-03-01T17:38:13;4.85;57.27
66343;DHT22;53144;51.524;5.080;2023-03-01T17:40:42;4.76;57.89